createdAt,value
2023-01-29T00:05:35.272Z,101925.00
2023-01-29T00:15:37.501Z,101917.00
2023-01-29T00:25:39.619Z,101894.53
2023-01-29T00:35:41.978Z,101903.22
2023-01-29T00:45:44.344Z,101890.66
2023-01-29T00:55:46.559Z,101886.59
2023-01-29T01:05:49.635Z,101894.69
2023-01-29T01:15:51.946Z,101915.72
2023-01-29T01:25:54.172Z,101899.16
2023-01-29T01:36:02.009Z,101863.72
2023-01-29T01:46:04.574Z,101853.66
2023-01-29T01:56:13.866Z,101853.47
2023-01-29T02:06:35.145Z,101859.00
2023-01-29T02:16:37.928Z,101871.09
2023-01-29T02:26:55.945Z,101882.63
2023-01-29T02:37:06.856Z,101875.94
2023-01-29T02:47:42.974Z,101893.97
2023-01-29T02:57:46.911Z,101881.47
2023-01-29T03:07:54.268Z,101894.44
2023-01-29T03:18:15.956Z,101878.34
2023-01-29T03:28:36.724Z,101881.78
2023-01-29T03:38:40.168Z,101882.03
2023-01-29T03:48:55.661Z,101872.19
2023-01-29T03:59:14.951Z,101864.84
2023-01-29T04:10:02.004Z,101846.47
2023-01-29T04:20:09.785Z,101852.41
2023-01-29T04:30:30.998Z,101818.22
2023-01-29T04:40:55.355Z,101829.03
2023-01-29T04:50:57.612Z,101812.94
2023-01-29T05:01:01.090Z,101809.72
2023-01-29T05:11:03.266Z,101781.47
2023-01-29T05:21:07.813Z,101761.50
2023-01-29T05:31:10.051Z,101761.53
2023-01-29T05:41:12.349Z,101756.59
2023-01-29T05:51:14.642Z,101773.81
2023-01-29T06:01:23.340Z,101788.28
2023-01-29T06:11:25.927Z,101808.63
2023-01-29T06:21:28.127Z,101826.06
2023-01-29T06:31:39.938Z,101815.63
2023-01-29T06:41:42.443Z,101798.47
2023-01-29T06:51:44.700Z,101812.72
2023-01-29T07:01:47.010Z,101811.97
2023-01-29T07:11:49.519Z,101815.47
2023-01-29T07:21:51.785Z,101821.72
2023-01-29T07:31:54.115Z,101807.16
2023-01-29T07:41:56.495Z,101802.09
2023-01-29T07:51:58.724Z,101790.84
2023-01-29T08:02:01.036Z,101776.59
2023-01-29T08:12:03.730Z,101777.69
2023-01-29T08:22:06.373Z,101777.19
2023-01-29T08:32:11.633Z,101783.06
2023-01-29T08:42:14.843Z,101769.50
2023-01-29T08:52:16.964Z,101755.25
2023-01-29T09:02:19.216Z,101751.13
2023-01-29T09:12:21.326Z,101740.94
2023-01-29T09:22:23.408Z,101722.16
2023-01-29T09:32:52.077Z,101717.78
2023-01-29T09:42:56.788Z,101708.56
2023-01-29T09:53:02.991Z,101714.66
2023-01-29T10:03:11.121Z,101708.81
2023-01-29T10:13:52.237Z,101715.91
2023-01-29T10:24:07.211Z,101708.56
2023-01-29T10:34:28.892Z,101697.56
2023-01-29T10:44:57.121Z,101689.75
2023-01-29T10:55:17.965Z,101664.38
2023-01-29T11:05:40.474Z,101649.44
2023-01-29T11:15:43.905Z,101653.22
2023-01-29T11:25:52.760Z,101640.50
2023-01-29T11:35:57.588Z,101611.41
2023-01-29T11:46:03.058Z,101601.66
2023-01-29T11:56:16.796Z,101576.66
2023-01-29T12:06:24.435Z,101556.16
2023-01-29T12:16:33.127Z,101544.84
2023-01-29T12:26:36.385Z,101497.16
2023-01-29T12:37:19.352Z,101473.50
2023-01-29T12:47:30.341Z,101459.50
2023-01-29T12:57:51.497Z,101441.66
2023-01-29T13:08:07.715Z,101443.69
2023-01-29T13:18:31.555Z,101435.38
2023-01-29T13:28:33.771Z,101430.56
2023-01-29T13:38:36.527Z,101424.22
2023-01-29T13:48:43.553Z,101423.66
2023-01-29T13:58:45.637Z,101430.19
2023-01-29T14:08:47.917Z,101418.94
2023-01-29T14:19:01.615Z,101396.41
2023-01-29T14:29:16.467Z,101403.00
2023-01-29T14:39:44.293Z,101402.28
2023-01-29T14:49:50.679Z,101385.31
2023-01-29T14:59:58.700Z,101381.81
2023-01-29T15:10:22.263Z,101377.34
2023-01-29T15:20:31.088Z,101364.53
2023-01-29T15:30:35.568Z,101368.81
2023-01-29T15:40:37.772Z,101353.94
2023-01-29T15:50:41.532Z,101346.38
2023-01-29T16:00:54.927Z,101344.59
2023-01-29T16:10:58.752Z,101336.97
2023-01-29T16:21:05.666Z,101320.72
2023-01-29T16:31:08.190Z,101312.88
2023-01-29T16:41:36.030Z,101285.41
2023-01-29T16:51:39.301Z,101291.06
2023-01-29T17:01:41.869Z,101276.53
2023-01-29T17:11:44.169Z,101264.91
2023-01-29T17:21:47.145Z,101250.38
2023-01-29T17:31:49.430Z,101252.88
2023-01-29T17:41:53.913Z,101245.91
2023-01-29T17:51:57.193Z,101235.63
2023-01-29T18:01:59.907Z,101233.84
2023-01-29T18:12:02.122Z,101218.34
2023-01-29T18:22:04.318Z,101213.63
2023-01-29T18:32:07.045Z,101166.53
2023-01-29T18:42:09.399Z,101163.88
2023-01-29T18:52:11.727Z,101147.91
2023-01-29T19:02:15.833Z,101152.31
2023-01-29T19:12:18.205Z,101142.75
2023-01-29T19:22:20.535Z,101129.97
2023-01-29T19:32:22.889Z,101127.31
2023-01-29T19:42:28.213Z,101091.19
2023-01-29T19:52:50.388Z,101070.56
2023-01-29T20:02:53.400Z,101047.56
2023-01-29T20:12:55.525Z,101031.72
2023-01-29T20:22:57.921Z,101001.75
2023-01-29T20:33:00.412Z,100979.22
2023-01-29T20:43:02.761Z,100970.72
2023-01-29T20:53:05.088Z,100963.25
2023-01-29T21:03:08.927Z,100944.13
2023-01-29T21:13:12.311Z,100982.25
2023-01-29T21:23:14.644Z,100956.56
2023-01-29T21:33:17.858Z,100935.19
2023-01-29T21:43:21.216Z,100949.34
2023-01-29T21:53:23.584Z,100957.94
2023-01-29T22:03:25.919Z,100957.63
2023-01-29T22:13:28.036Z,100933.72
2023-01-29T22:23:31.940Z,100945.31
2023-01-29T22:33:34.386Z,100944.47
2023-01-29T22:43:36.731Z,100926.09
2023-01-29T22:53:40.897Z,100909.84
2023-01-29T23:03:44.432Z,100853.44
2023-01-29T23:13:52.082Z,100810.50
2023-01-29T23:23:58.412Z,100717.03
2023-01-29T23:34:02.050Z,100767.78
2023-01-29T23:44:05.428Z,100759.88
2023-01-29T23:54:07.877Z,100740.97
